createdAt,value
2018-12-05T00:02:35.416Z,0.58
2018-12-05T00:05:40.247Z,0.51
2018-12-05T00:08:51.706Z,0.64
2018-12-05T00:11:56.347Z,0.59
2018-12-05T00:15:01.707Z,0.46
2018-12-05T00:18:06.336Z,0.37
2018-12-05T00:21:10.995Z,0.40
2018-12-05T00:24:16.049Z,0.30
2018-12-05T00:27:20.701Z,0.34
2018-12-05T00:30:25.877Z,0.29
2018-12-05T00:33:30.816Z,0.54
2018-12-05T00:36:35.467Z,0.73
2018-12-05T00:39:40.114Z,0.62
2018-12-05T00:42:44.777Z,0.73
2018-12-05T00:45:49.320Z,0.66
2018-12-05T00:48:53.917Z,0.82
2018-12-05T00:51:58.503Z,0.68
2018-12-05T00:55:03.097Z,0.72
2018-12-05T00:58:07.613Z,0.69
2018-12-05T01:01:12.453Z,0.78
2018-12-05T01:04:17.150Z,0.73
2018-12-05T01:07:21.639Z,0.83
2018-12-05T01:10:26.263Z,0.80
2018-12-05T01:13:30.837Z,0.72
2018-12-05T01:16:35.467Z,0.74
2018-12-05T01:19:40.014Z,0.77
2018-12-05T01:22:44.551Z,0.70
2018-12-05T01:25:49.088Z,0.80
2018-12-05T01:28:53.698Z,0.99
2018-12-05T01:31:58.212Z,0.89
2018-12-05T01:35:02.736Z,0.82
2018-12-05T01:38:07.284Z,0.82
2018-12-05T01:41:12.068Z,1.01
2018-12-05T01:44:16.609Z,1.02
2018-12-05T01:47:21.157Z,1.00
2018-12-05T01:50:25.650Z,0.79
2018-12-05T01:53:30.268Z,0.69
2018-12-05T01:56:34.760Z,0.86
2018-12-05T01:59:39.322Z,0.96
2018-12-05T02:02:44.107Z,0.77
2018-12-05T02:05:49.444Z,0.79
2018-12-05T02:08:53.987Z,0.73
2018-12-05T02:11:58.491Z,0.81
2018-12-05T02:15:03.117Z,0.70
2018-12-05T02:21:28.817Z,0.65
2018-12-05T02:24:33.374Z,0.68
2018-12-05T02:27:37.935Z,0.58
2018-12-05T02:30:42.777Z,0.58
2018-12-05T02:33:47.440Z,0.60
2018-12-05T02:36:52.177Z,0.68
2018-12-05T02:39:56.714Z,0.68
2018-12-05T02:43:01.210Z,0.69
2018-12-05T02:46:05.736Z,0.63
2018-12-05T02:49:10.451Z,0.63
2018-12-05T02:52:15.093Z,0.65
2018-12-05T02:55:19.771Z,0.55
2018-12-05T02:58:24.378Z,0.53
2018-12-05T03:01:29.024Z,0.71
2018-12-05T03:04:33.631Z,0.66
2018-12-05T03:07:38.302Z,0.70
2018-12-05T03:10:42.797Z,0.55
2018-12-05T03:17:00.605Z,0.71
2018-12-05T03:20:05.669Z,0.64
2018-12-05T03:23:10.291Z,0.57
2018-12-05T03:26:14.953Z,0.46
2018-12-05T03:29:19.658Z,0.57
2018-12-05T03:32:24.420Z,0.69
2018-12-05T03:35:34.672Z,0.82
2018-12-05T03:38:39.192Z,0.76
2018-12-05T03:41:43.757Z,0.71
2018-12-05T03:44:48.234Z,0.73
2018-12-05T03:47:52.746Z,0.64
2018-12-05T03:50:57.422Z,0.55
2018-12-05T03:54:02.031Z,0.53
2018-12-05T03:57:06.626Z,0.66
2018-12-05T04:00:11.602Z,0.78
2018-12-05T04:03:16.163Z,0.68
2018-12-05T04:06:20.739Z,0.73
2018-12-05T04:09:25.302Z,0.60
2018-12-05T04:12:29.963Z,0.55
2018-12-05T04:15:34.878Z,0.79
2018-12-05T04:18:39.583Z,0.68
2018-12-05T04:21:44.208Z,0.60
2018-12-05T04:24:48.945Z,0.55
2018-12-05T04:27:53.455Z,0.55
2018-12-05T04:30:57.963Z,0.49
2018-12-05T04:34:02.519Z,0.57
2018-12-05T04:37:07.151Z,0.51
2018-12-05T04:40:11.813Z,0.50
2018-12-05T04:43:16.338Z,0.59
2018-12-05T04:46:20.833Z,0.51
2018-12-05T04:49:25.392Z,0.53
2018-12-05T04:52:29.986Z,0.55
2018-12-05T04:55:34.565Z,0.54
2018-12-05T04:58:39.297Z,0.66
2018-12-05T05:01:43.981Z,0.72
2018-12-05T05:04:48.586Z,0.70
2018-12-05T05:07:53.252Z,0.69
2018-12-05T05:10:57.964Z,0.81
2018-12-05T05:14:02.517Z,0.76
2018-12-05T05:17:07.030Z,0.72
2018-12-05T05:20:12.027Z,0.73
2018-12-05T05:23:16.802Z,0.78
2018-12-05T05:26:21.544Z,0.80
2018-12-05T05:29:26.076Z,0.81
2018-12-05T05:32:30.571Z,0.84
2018-12-05T05:35:35.093Z,1.00
2018-12-05T05:38:39.661Z,0.96
2018-12-05T05:41:44.201Z,1.00
2018-12-05T05:44:48.750Z,1.09
2018-12-05T05:47:53.271Z,0.99
2018-12-05T05:50:57.864Z,1.00
2018-12-05T05:54:02.425Z,1.10
2018-12-05T05:57:06.973Z,1.11
2018-12-05T06:00:11.612Z,1.10
2018-12-05T06:03:16.248Z,1.09
2018-12-05T06:06:21.044Z,1.22
2018-12-05T06:09:25.571Z,1.11
2018-12-05T06:12:30.264Z,1.19
2018-12-05T06:15:34.838Z,1.18
2018-12-05T06:18:39.534Z,1.19
2018-12-05T06:21:44.182Z,1.11
2018-12-05T06:24:48.714Z,1.11
2018-12-05T06:27:55.608Z,1.12
2018-12-05T06:31:00.154Z,1.13
2018-12-05T06:34:04.807Z,1.23
2018-12-05T06:37:09.294Z,1.32
2018-12-05T06:40:13.813Z,1.32
2018-12-05T06:43:18.501Z,1.36
2018-12-05T06:46:23.253Z,1.33
2018-12-05T06:49:27.848Z,1.30
2018-12-05T06:52:32.330Z,1.28
2018-12-05T06:55:39.256Z,1.36
2018-12-05T06:58:43.524Z,1.33
2018-12-05T07:01:48.141Z,1.32
2018-12-05T07:04:52.744Z,1.27
2018-12-05T07:07:57.275Z,1.37
2018-12-05T07:11:01.972Z,1.43
2018-12-05T07:14:07.220Z,1.51
2018-12-05T07:17:11.857Z,1.45
2018-12-05T07:20:16.395Z,1.49
2018-12-05T07:23:20.933Z,1.34
2018-12-05T07:26:25.513Z,1.37
2018-12-05T07:29:30.063Z,1.41
2018-12-05T07:32:34.592Z,1.55
2018-12-05T07:35:39.273Z,1.53
2018-12-05T07:38:43.849Z,1.63
2018-12-05T07:41:48.459Z,1.57
2018-12-05T07:44:52.899Z,1.67
2018-12-05T07:47:57.481Z,1.76
2018-12-05T07:51:02.098Z,1.67
2018-12-05T07:54:06.750Z,1.42
2018-12-05T07:57:11.284Z,1.36
2018-12-05T08:00:15.912Z,1.39
2018-12-05T08:03:20.554Z,1.58
2018-12-05T08:06:25.088Z,1.42
2018-12-05T08:09:29.710Z,1.64
2018-12-05T08:12:34.337Z,1.62
2018-12-05T08:15:38.907Z,1.45
2018-12-05T08:18:43.517Z,1.58
2018-12-05T08:21:48.261Z,1.47
2018-12-05T08:24:52.833Z,1.61
2018-12-05T08:27:57.404Z,1.54
2018-12-05T08:31:02.034Z,1.58
2018-12-05T08:34:06.699Z,1.59
2018-12-05T08:37:11.224Z,1.71
2018-12-05T08:40:15.857Z,1.83
2018-12-05T08:43:20.428Z,1.81
2018-12-05T08:46:24.953Z,1.98
2018-12-05T08:49:29.549Z,1.90
2018-12-05T08:52:34.266Z,1.99
2018-12-05T08:55:38.873Z,2.07
2018-12-05T08:58:43.441Z,1.88
2018-12-05T09:01:47.976Z,1.95
2018-12-05T09:04:52.552Z,2.11
2018-12-05T09:07:57.082Z,2.27
2018-12-05T09:11:01.668Z,2.31
2018-12-05T09:14:06.406Z,2.38
2018-12-05T09:17:10.879Z,2.41
2018-12-05T09:20:15.674Z,2.39
2018-12-05T09:23:20.189Z,2.18
2018-12-05T09:26:24.773Z,2.23
2018-12-05T09:29:29.335Z,2.30
2018-12-05T09:32:33.979Z,2.17
2018-12-05T09:35:38.545Z,2.15
2018-12-05T09:38:43.188Z,2.21
2018-12-05T09:41:47.793Z,2.38
2018-12-05T09:44:52.402Z,2.38
2018-12-05T09:47:57.880Z,2.61
2018-12-05T09:51:02.542Z,2.52
2018-12-05T09:54:07.269Z,2.39
2018-12-05T09:57:11.821Z,2.32
2018-12-05T10:00:16.404Z,2.46
2018-12-05T10:03:20.917Z,2.38
2018-12-05T10:06:25.505Z,2.44
2018-12-05T10:09:29.976Z,2.46
2018-12-05T10:12:34.669Z,2.32
2018-12-05T10:15:39.087Z,2.36
2018-12-05T10:18:43.713Z,2.40
2018-12-05T10:21:48.273Z,2.40
2018-12-05T10:24:52.892Z,2.38
2018-12-05T10:27:57.547Z,2.52
2018-12-05T10:31:02.074Z,2.59
2018-12-05T10:34:06.652Z,2.39
2018-12-05T10:37:11.285Z,2.51
2018-12-05T10:40:16.395Z,2.42
2018-12-05T10:43:21.045Z,2.44
2018-12-05T10:46:25.677Z,2.42
2018-12-05T10:49:30.296Z,2.50
2018-12-05T10:52:34.794Z,2.69
2018-12-05T10:55:39.549Z,2.56
2018-12-05T10:58:44.188Z,2.80
2018-12-05T11:03:57.884Z,2.96
2018-12-05T11:08:08.455Z,2.73
2018-12-05T11:11:18.243Z,2.86
2018-12-05T11:14:27.946Z,2.88
2018-12-05T11:17:37.847Z,2.71
2018-12-05T11:20:47.633Z,2.90
2018-12-05T11:23:57.430Z,3.02
2018-12-05T11:27:02.307Z,3.09
2018-12-05T11:30:08.550Z,2.94
2018-12-05T11:33:13.225Z,3.17
2018-12-05T11:36:17.813Z,3.09
2018-12-05T11:39:22.350Z,3.22
2018-12-05T11:42:26.919Z,3.23
2018-12-05T11:45:31.632Z,3.31
2018-12-05T11:48:36.318Z,3.40
2018-12-05T11:51:40.886Z,3.37
2018-12-05T11:54:45.508Z,3.33
2018-12-05T11:57:50.169Z,3.45
2018-12-05T12:00:54.999Z,3.31
2018-12-05T12:03:59.763Z,3.36
2018-12-05T12:07:04.402Z,3.31
2018-12-05T12:10:09.303Z,3.33
2018-12-05T12:13:13.828Z,3.38
2018-12-05T12:16:19.060Z,3.49
2018-12-05T12:19:23.687Z,3.57
2018-12-05T12:22:28.239Z,3.83
2018-12-05T12:25:33.013Z,3.84
2018-12-05T12:28:37.588Z,3.82
2018-12-05T12:31:42.152Z,3.47
2018-12-05T12:34:46.892Z,3.60
2018-12-05T12:37:51.528Z,3.77
2018-12-05T12:40:56.365Z,3.91
2018-12-05T12:44:00.887Z,3.72
2018-12-05T12:47:05.518Z,3.70
2018-12-05T12:50:10.337Z,3.74
2018-12-05T12:53:14.835Z,3.73
2018-12-05T12:56:19.350Z,3.99
2018-12-05T12:59:23.929Z,3.85
2018-12-05T13:02:28.466Z,3.85
2018-12-05T13:05:33.027Z,3.86
2018-12-05T13:08:37.571Z,3.73
2018-12-05T13:11:42.091Z,3.59
2018-12-05T13:14:46.666Z,3.63
2018-12-05T13:17:51.180Z,3.56
2018-12-05T13:20:55.799Z,3.62
2018-12-05T13:24:00.492Z,3.63
2018-12-05T13:27:05.066Z,3.49
2018-12-05T13:30:22.172Z,3.44
2018-12-05T13:33:26.768Z,3.60
2018-12-05T13:36:31.552Z,3.68
2018-12-05T13:39:36.237Z,3.68
2018-12-05T13:42:40.819Z,3.56
2018-12-05T13:45:45.559Z,3.49
2018-12-05T13:48:50.121Z,3.54
2018-12-05T13:51:54.712Z,3.59
2018-12-05T13:54:59.249Z,3.58
2018-12-05T13:58:03.805Z,3.59
2018-12-05T14:01:08.450Z,3.60
2018-12-05T14:04:12.966Z,3.68
2018-12-05T14:07:17.566Z,3.68
2018-12-05T14:10:22.194Z,3.68
2018-12-05T14:13:26.769Z,3.69
2018-12-05T14:16:31.311Z,3.77
2018-12-05T14:19:35.819Z,3.84
2018-12-05T14:22:40.368Z,3.99
2018-12-05T14:25:44.908Z,4.02
2018-12-05T14:28:49.430Z,4.12
2018-12-05T14:31:54.393Z,4.05
2018-12-05T14:34:59.041Z,3.91
2018-12-05T14:38:03.674Z,3.85
2018-12-05T14:41:08.458Z,3.81
2018-12-05T14:44:13.003Z,3.76
2018-12-05T14:47:17.642Z,3.77
2018-12-05T14:50:22.181Z,3.76
2018-12-05T14:53:26.688Z,3.60
2018-12-05T14:56:31.342Z,3.74
2018-12-05T14:59:35.909Z,3.66
2018-12-05T15:02:40.502Z,3.59
2018-12-05T15:05:45.132Z,3.61
2018-12-05T15:08:49.746Z,3.54
2018-12-05T15:11:54.332Z,3.46
2018-12-05T15:14:58.903Z,3.42
2018-12-05T15:18:03.737Z,3.51
2018-12-05T15:21:08.298Z,3.40
2018-12-05T15:24:12.961Z,3.37
2018-12-05T15:27:17.552Z,3.40
2018-12-05T15:30:22.268Z,3.35
2018-12-05T15:33:26.949Z,3.60
2018-12-05T15:36:31.625Z,3.48
2018-12-05T15:39:36.183Z,3.45
2018-12-05T15:42:40.944Z,3.44
2018-12-05T15:45:45.615Z,3.43
2018-12-05T15:48:50.316Z,3.41
2018-12-05T15:51:55.165Z,3.40
2018-12-05T15:54:59.669Z,3.41
2018-12-05T15:58:04.370Z,3.56
2018-12-05T16:01:09.117Z,3.39
2018-12-05T16:04:13.706Z,3.39
2018-12-05T16:07:18.337Z,3.37
2018-12-05T16:10:22.933Z,3.55
2018-12-05T16:13:27.554Z,3.65
2018-12-05T16:16:32.208Z,3.56
2018-12-05T16:19:36.801Z,3.47
2018-12-05T16:22:41.335Z,3.42
2018-12-05T16:25:45.963Z,3.42
2018-12-05T16:28:50.621Z,3.53
2018-12-05T16:31:55.251Z,3.46
2018-12-05T16:35:00.567Z,3.42
2018-12-05T16:38:05.098Z,3.42
2018-12-05T16:41:09.684Z,3.44
2018-12-05T16:44:14.239Z,3.48
2018-12-05T16:47:18.864Z,3.45
2018-12-05T16:50:23.508Z,3.40
2018-12-05T16:53:28.068Z,3.45
2018-12-05T16:56:32.600Z,3.43
2018-12-05T16:59:37.250Z,3.42
2018-12-05T17:02:41.885Z,3.49
2018-12-05T17:05:46.502Z,3.55
2018-12-05T17:08:51.042Z,3.45
2018-12-05T17:11:55.642Z,3.41
2018-12-05T17:18:14.938Z,3.45
2018-12-05T17:21:19.430Z,3.42
2018-12-05T17:24:24.801Z,3.48
2018-12-05T17:27:29.380Z,3.61
2018-12-05T17:30:33.974Z,3.52
2018-12-05T17:33:38.624Z,3.53
2018-12-05T17:36:43.225Z,3.42
2018-12-05T17:39:47.800Z,3.44
2018-12-05T17:42:52.383Z,3.45
2018-12-05T17:45:57.054Z,3.43
2018-12-05T17:49:03.006Z,3.49
2018-12-05T17:52:08.855Z,3.50
2018-12-05T17:55:13.633Z,3.34
2018-12-05T17:58:18.130Z,3.48
2018-12-05T18:01:22.950Z,3.45
2018-12-05T18:04:27.524Z,3.50
2018-12-05T18:07:32.234Z,3.54
2018-12-05T18:10:36.774Z,3.55
2018-12-05T18:13:41.447Z,3.44
2018-12-05T18:16:46.055Z,3.45
2018-12-05T18:19:50.671Z,3.49
2018-12-05T18:22:55.305Z,3.62
2018-12-05T18:26:00.028Z,3.58
2018-12-05T18:29:04.802Z,3.57
2018-12-05T18:32:09.346Z,3.46
2018-12-05T18:35:14.078Z,3.41
2018-12-05T18:38:18.670Z,3.50
2018-12-05T18:44:37.726Z,3.49
2018-12-05T18:47:42.251Z,3.52
2018-12-05T18:50:46.819Z,3.49
2018-12-05T18:53:51.509Z,3.50
2018-12-05T18:56:56.056Z,3.44
2018-12-05T19:00:01.504Z,3.57
2018-12-05T19:03:07.494Z,3.58
2018-12-05T19:06:12.242Z,3.58
2018-12-05T19:09:16.779Z,3.62
2018-12-05T19:12:21.727Z,3.73
2018-12-05T19:15:26.594Z,3.53
2018-12-05T19:18:31.151Z,3.59
2018-12-05T19:21:35.805Z,3.66
2018-12-05T19:24:40.433Z,3.63
2018-12-05T19:27:45.138Z,3.59
2018-12-05T19:30:49.928Z,3.58
2018-12-05T19:33:58.735Z,3.46
2018-12-05T19:37:03.676Z,3.62
2018-12-05T19:40:08.755Z,3.61
2018-12-05T19:43:13.450Z,3.62
2018-12-05T19:46:18.079Z,3.44
2018-12-05T19:49:22.744Z,3.46
2018-12-05T19:52:27.422Z,3.43
2018-12-05T19:55:32.048Z,3.48
2018-12-05T19:58:37.631Z,3.47
2018-12-05T20:01:42.568Z,3.55
2018-12-05T20:04:47.247Z,3.53
2018-12-05T20:07:51.835Z,3.42
2018-12-05T20:10:56.578Z,3.46
2018-12-05T20:14:01.205Z,3.56
2018-12-05T20:17:06.467Z,3.56
2018-12-05T20:20:11.607Z,3.66
2018-12-05T20:23:16.721Z,3.58
2018-12-05T20:26:21.492Z,3.60
2018-12-05T20:29:26.036Z,3.55
2018-12-05T20:32:30.729Z,3.51
2018-12-05T20:35:35.390Z,3.53
2018-12-05T20:38:40.842Z,3.52
2018-12-05T20:41:45.686Z,3.53
2018-12-05T20:44:50.210Z,3.58
2018-12-05T20:47:54.895Z,3.54
2018-12-05T20:50:59.524Z,3.56
2018-12-05T20:54:04.196Z,3.65
2018-12-05T20:57:08.726Z,3.63
2018-12-05T21:00:13.970Z,3.58
2018-12-05T21:03:18.620Z,3.67
2018-12-05T21:06:23.372Z,3.61
2018-12-05T21:09:27.969Z,3.67
2018-12-05T21:12:32.600Z,3.68
2018-12-05T21:15:37.342Z,3.66
2018-12-05T21:18:41.954Z,3.73
2018-12-05T21:21:46.576Z,3.68
2018-12-05T21:24:51.149Z,3.74
2018-12-05T21:27:55.715Z,3.66
2018-12-05T21:31:00.443Z,3.67
2018-12-05T21:34:05.166Z,3.74
2018-12-05T21:37:09.792Z,3.79
2018-12-05T21:40:14.279Z,3.89
2018-12-05T21:43:18.894Z,3.83
2018-12-05T21:46:23.586Z,3.79
2018-12-05T21:49:28.180Z,3.75
2018-12-05T21:52:32.827Z,3.81
2018-12-05T21:55:38.322Z,3.73
2018-12-05T21:58:42.992Z,3.83
2018-12-05T22:01:47.680Z,3.90
2018-12-05T22:04:52.290Z,3.84
2018-12-05T22:07:57.010Z,3.99
2018-12-05T22:11:01.539Z,3.88
2018-12-05T22:14:06.110Z,3.83
2018-12-05T22:17:10.948Z,3.90
2018-12-05T22:20:15.507Z,3.92
2018-12-05T22:23:20.271Z,3.99
2018-12-05T22:26:24.850Z,4.02
2018-12-05T22:29:29.449Z,4.07
2018-12-05T22:32:33.975Z,3.82
2018-12-05T22:35:38.568Z,3.85
2018-12-05T22:38:43.192Z,4.00
2018-12-05T22:41:47.862Z,3.84
2018-12-05T22:44:53.151Z,3.78
2018-12-05T22:47:57.784Z,3.82
2018-12-05T22:51:02.554Z,3.77
2018-12-05T22:54:07.095Z,3.82
2018-12-05T22:57:16.593Z,3.95
2018-12-05T23:00:26.069Z,3.91
2018-12-05T23:03:30.691Z,3.89
2018-12-05T23:06:35.926Z,3.89
2018-12-05T23:09:40.385Z,3.90
2018-12-05T23:12:45.101Z,3.92
2018-12-05T23:15:49.766Z,3.91
2018-12-05T23:18:54.487Z,3.97
2018-12-05T23:21:59.073Z,3.97
2018-12-05T23:25:03.838Z,3.87
2018-12-05T23:28:08.600Z,3.89
2018-12-05T23:31:13.209Z,3.89
2018-12-05T23:34:17.783Z,3.93
2018-12-05T23:37:22.453Z,3.96
2018-12-05T23:40:27.517Z,4.02
2018-12-05T23:43:32.915Z,4.06
2018-12-05T23:46:37.421Z,3.87
2018-12-05T23:49:42.131Z,3.89
2018-12-05T23:52:46.730Z,3.86
2018-12-05T23:55:51.275Z,3.86
2018-12-05T23:58:55.799Z,3.81
